sensor_id;sensor_type;location;lat;lon;timestamp;P1;durP1;ratioP1;P2;durP2;ratioP2
23406;SDS011;11876;53.438;18.942;2023-03-03T00:01:32;75.53;;;43.97;;
23406;SDS011;11876;53.438;18.942;2023-03-03T00:04:35;79.00;;;44.22;;
23406;SDS011;11876;53.438;18.942;2023-03-03T00:07:37;73.82;;;42.65;;
23406;SDS011;11876;53.438;18.942;2023-03-03T00:10:40;66.00;;;38.38;;
23406;SDS011;11876;53.438;18.942;2023-03-03T00:13:46;72.25;;;40.92;;
23406;SDS011;11876;53.438;18.942;2023-03-03T00:16:49;72.07;;;40.28;;
23406;SDS011;11876;53.438;18.942;2023-03-03T00:19:51;69.80;;;40.15;;
23406;SDS011;11876;53.438;18.942;2023-03-03T00:22:55;66.65;;;33.28;;
23406;SDS011;11876;53.438;18.942;2023-03-03T00:25:58;68.30;;;38.13;;
23406;SDS011;11876;53.438;18.942;2023-03-03T00:29:01;68.13;;;37.67;;
23406;SDS011;11876;53.438;18.942;2023-03-03T00:35:28;64.80;;;36.92;;
23406;SDS011;11876;53.438;18.942;2023-03-03T00:38:36;63.70;;;36.65;;
23406;SDS011;11876;53.438;18.942;2023-03-03T00:41:39;64.43;;;36.37;;
23406;SDS011;11876;53.438;18.942;2023-03-03T00:47:45;59.35;;;33.63;;
23406;SDS011;11876;53.438;18.942;2023-03-03T00:50:47;63.08;;;36.28;;
23406;SDS011;11876;53.438;18.942;2023-03-03T00:53:51;67.88;;;36.15;;
23406;SDS011;11876;53.438;18.942;2023-03-03T00:56:53;62.80;;;34.83;;
23406;SDS011;11876;53.438;18.942;2023-03-03T00:59:56;67.85;;;37.78;;
23406;SDS011;11876;53.438;18.942;2023-03-03T01:03:03;50.13;;;27.33;;
23406;SDS011;11876;53.438;18.942;2023-03-03T01:06:07;62.90;;;35.80;;
23406;SDS011;11876;53.438;18.942;2023-03-03T01:09:10;68.18;;;37.53;;
23406;SDS011;11876;53.438;18.942;2023-03-03T01:12:13;66.80;;;37.72;;
23406;SDS011;11876;53.438;18.942;2023-03-03T01:15:15;62.05;;;33.50;;
23406;SDS011;11876;53.438;18.942;2023-03-03T01:18:18;63.73;;;34.57;;
23406;SDS011;11876;53.438;18.942;2023-03-03T01:21:21;59.83;;;33.60;;
23406;SDS011;11876;53.438;18.942;2023-03-03T01:24:24;65.18;;;35.03;;
23406;SDS011;11876;53.438;18.942;2023-03-03T01:27:26;65.40;;;35.22;;
23406;SDS011;11876;53.438;18.942;2023-03-03T01:30:29;62.20;;;34.20;;
23406;SDS011;11876;53.438;18.942;2023-03-03T01:33:32;67.70;;;36.30;;
23406;SDS011;11876;53.438;18.942;2023-03-03T01:36:35;68.93;;;37.05;;
23406;SDS011;11876;53.438;18.942;2023-03-03T01:39:38;71.45;;;38.17;;
23406;SDS011;11876;53.438;18.942;2023-03-03T01:42:41;66.05;;;35.58;;
23406;SDS011;11876;53.438;18.942;2023-03-03T01:48:49;64.35;;;37.45;;
23406;SDS011;11876;53.438;18.942;2023-03-03T01:51:54;71.32;;;38.03;;
23406;SDS011;11876;53.438;18.942;2023-03-03T01:55:11;68.28;;;38.00;;
23406;SDS011;11876;53.438;18.942;2023-03-03T01:58:19;67.88;;;37.42;;
23406;SDS011;11876;53.438;18.942;2023-03-03T02:01:25;70.50;;;38.95;;
23406;SDS011;11876;53.438;18.942;2023-03-03T02:04:30;78.65;;;42.65;;
23406;SDS011;11876;53.438;18.942;2023-03-03T02:07:32;69.18;;;38.60;;
23406;SDS011;11876;53.438;18.942;2023-03-03T02:10:35;62.90;;;32.90;;
23406;SDS011;11876;53.438;18.942;2023-03-03T02:13:38;75.47;;;39.42;;
23406;SDS011;11876;53.438;18.942;2023-03-03T02:16:40;68.05;;;35.30;;
23406;SDS011;11876;53.438;18.942;2023-03-03T02:23:22;65.45;;;35.40;;
23406;SDS011;11876;53.438;18.942;2023-03-03T02:26:28;62.28;;;35.72;;
23406;SDS011;11876;53.438;18.942;2023-03-03T02:29:36;59.60;;;35.65;;
23406;SDS011;11876;53.438;18.942;2023-03-03T02:32:40;64.88;;;36.38;;
23406;SDS011;11876;53.438;18.942;2023-03-03T02:35:43;62.25;;;36.47;;
23406;SDS011;11876;53.438;18.942;2023-03-03T02:38:50;66.85;;;35.55;;
23406;SDS011;11876;53.438;18.942;2023-03-03T02:45:15;72.25;;;35.63;;
23406;SDS011;11876;53.438;18.942;2023-03-03T02:48:18;50.47;;;27.75;;
23406;SDS011;11876;53.438;18.942;2023-03-03T02:51:20;55.63;;;32.35;;
23406;SDS011;11876;53.438;18.942;2023-03-03T02:54:24;61.25;;;33.40;;
23406;SDS011;11876;53.438;18.942;2023-03-03T02:57:27;63.13;;;34.45;;
23406;SDS011;11876;53.438;18.942;2023-03-03T03:00:30;61.63;;;34.20;;
23406;SDS011;11876;53.438;18.942;2023-03-03T03:03:34;66.05;;;34.15;;
23406;SDS011;11876;53.438;18.942;2023-03-03T03:06:39;62.55;;;33.92;;
23406;SDS011;11876;53.438;18.942;2023-03-03T03:09:42;51.55;;;28.70;;
23406;SDS011;11876;53.438;18.942;2023-03-03T03:12:44;59.67;;;32.92;;
23406;SDS011;11876;53.438;18.942;2023-03-03T03:15:47;64.18;;;34.47;;
23406;SDS011;11876;53.438;18.942;2023-03-03T03:18:50;66.07;;;32.53;;
23406;SDS011;11876;53.438;18.942;2023-03-03T03:21:52;61.28;;;31.90;;
23406;SDS011;11876;53.438;18.942;2023-03-03T03:24:55;61.75;;;32.58;;
23406;SDS011;11876;53.438;18.942;2023-03-03T03:27:59;60.83;;;33.85;;
23406;SDS011;11876;53.438;18.942;2023-03-03T03:31:02;53.42;;;29.90;;
23406;SDS011;11876;53.438;18.942;2023-03-03T03:34:06;58.05;;;32.15;;
23406;SDS011;11876;53.438;18.942;2023-03-03T03:37:09;69.55;;;32.70;;
23406;SDS011;11876;53.438;18.942;2023-03-03T03:40:12;56.85;;;28.95;;
23406;SDS011;11876;53.438;18.942;2023-03-03T03:43:14;63.58;;;32.35;;
23406;SDS011;11876;53.438;18.942;2023-03-03T03:46:17;56.93;;;32.20;;
23406;SDS011;11876;53.438;18.942;2023-03-03T03:49:20;63.42;;;33.67;;
23406;SDS011;11876;53.438;18.942;2023-03-03T03:52:24;58.78;;;31.48;;
23406;SDS011;11876;53.438;18.942;2023-03-03T03:55:27;47.00;;;24.27;;
23406;SDS011;11876;53.438;18.942;2023-03-03T03:58:30;49.23;;;23.70;;
23406;SDS011;11876;53.438;18.942;2023-03-03T04:01:36;66.40;;;33.60;;
23406;SDS011;11876;53.438;18.942;2023-03-03T04:04:39;58.88;;;31.27;;
23406;SDS011;11876;53.438;18.942;2023-03-03T04:07:42;56.15;;;29.92;;
23406;SDS011;11876;53.438;18.942;2023-03-03T04:10:44;61.65;;;29.33;;
23406;SDS011;11876;53.438;18.942;2023-03-03T04:13:47;62.72;;;30.77;;
23406;SDS011;11876;53.438;18.942;2023-03-03T04:16:50;44.60;;;23.07;;
23406;SDS011;11876;53.438;18.942;2023-03-03T04:19:52;60.17;;;30.23;;
23406;SDS011;11876;53.438;18.942;2023-03-03T04:22:55;63.50;;;32.50;;
23406;SDS011;11876;53.438;18.942;2023-03-03T04:25:59;62.40;;;31.42;;
23406;SDS011;11876;53.438;18.942;2023-03-03T04:29:02;65.72;;;32.80;;
23406;SDS011;11876;53.438;18.942;2023-03-03T04:32:04;58.65;;;31.48;;
23406;SDS011;11876;53.438;18.942;2023-03-03T04:35:07;60.00;;;30.10;;
23406;SDS011;11876;53.438;18.942;2023-03-03T04:38:14;62.20;;;33.60;;
23406;SDS011;11876;53.438;18.942;2023-03-03T04:41:17;53.35;;;27.70;;
23406;SDS011;11876;53.438;18.942;2023-03-03T04:44:19;63.72;;;33.13;;
23406;SDS011;11876;53.438;18.942;2023-03-03T04:47:23;47.67;;;24.20;;
23406;SDS011;11876;53.438;18.942;2023-03-03T04:50:26;50.50;;;26.88;;
23406;SDS011;11876;53.438;18.942;2023-03-03T04:53:28;66.22;;;33.83;;
23406;SDS011;11876;53.438;18.942;2023-03-03T04:56:31;59.85;;;32.08;;
23406;SDS011;11876;53.438;18.942;2023-03-03T04:59:34;62.63;;;32.38;;
23406;SDS011;11876;53.438;18.942;2023-03-03T05:02:36;50.78;;;26.73;;
23406;SDS011;11876;53.438;18.942;2023-03-03T05:05:39;52.13;;;26.80;;
23406;SDS011;11876;53.438;18.942;2023-03-03T05:08:42;64.95;;;31.48;;
23406;SDS011;11876;53.438;18.942;2023-03-03T05:11:44;60.15;;;32.10;;
23406;SDS011;11876;53.438;18.942;2023-03-03T05:14:47;56.38;;;30.77;;
23406;SDS011;11876;53.438;18.942;2023-03-03T05:17:49;62.33;;;32.05;;
23406;SDS011;11876;53.438;18.942;2023-03-03T05:20:54;54.83;;;30.60;;
23406;SDS011;11876;53.438;18.942;2023-03-03T05:23:56;56.90;;;31.35;;
23406;SDS011;11876;53.438;18.942;2023-03-03T05:26:58;54.60;;;28.85;;
23406;SDS011;11876;53.438;18.942;2023-03-03T05:30:01;52.00;;;27.73;;
23406;SDS011;11876;53.438;18.942;2023-03-03T05:33:04;59.65;;;30.25;;
23406;SDS011;11876;53.438;18.942;2023-03-03T05:36:07;83.57;;;39.53;;
23406;SDS011;11876;53.438;18.942;2023-03-03T05:39:09;57.90;;;30.92;;
23406;SDS011;11876;53.438;18.942;2023-03-03T05:42:12;55.22;;;29.50;;
23406;SDS011;11876;53.438;18.942;2023-03-03T05:45:14;48.97;;;28.05;;
23406;SDS011;11876;53.438;18.942;2023-03-03T05:48:17;49.63;;;27.48;;
23406;SDS011;11876;53.438;18.942;2023-03-03T05:51:19;44.70;;;23.52;;
23406;SDS011;11876;53.438;18.942;2023-03-03T05:54:21;50.30;;;27.48;;
23406;SDS011;11876;53.438;18.942;2023-03-03T05:57:24;41.58;;;22.88;;
23406;SDS011;11876;53.438;18.942;2023-03-03T06:00:26;40.97;;;23.92;;
23406;SDS011;11876;53.438;18.942;2023-03-03T06:03:29;41.92;;;25.13;;
23406;SDS011;11876;53.438;18.942;2023-03-03T06:06:32;34.50;;;21.27;;
23406;SDS011;11876;53.438;18.942;2023-03-03T06:09:34;43.88;;;26.15;;
23406;SDS011;11876;53.438;18.942;2023-03-03T06:12:37;47.07;;;25.57;;
23406;SDS011;11876;53.438;18.942;2023-03-03T06:15:41;51.72;;;26.23;;
23406;SDS011;11876;53.438;18.942;2023-03-03T06:18:44;33.20;;;17.93;;
23406;SDS011;11876;53.438;18.942;2023-03-03T06:21:46;45.97;;;23.40;;
23406;SDS011;11876;53.438;18.942;2023-03-03T06:24:49;47.20;;;23.70;;
23406;SDS011;11876;53.438;18.942;2023-03-03T06:27:53;40.58;;;21.17;;
23406;SDS011;11876;53.438;18.942;2023-03-03T06:30:55;37.92;;;20.13;;
23406;SDS011;11876;53.438;18.942;2023-03-03T06:33:58;40.80;;;19.53;;
23406;SDS011;11876;53.438;18.942;2023-03-03T06:37:00;38.08;;;18.52;;
23406;SDS011;11876;53.438;18.942;2023-03-03T06:40:03;34.72;;;17.65;;
23406;SDS011;11876;53.438;18.942;2023-03-03T06:43:07;45.63;;;19.30;;
23406;SDS011;11876;53.438;18.942;2023-03-03T06:46:10;36.30;;;17.92;;
23406;SDS011;11876;53.438;18.942;2023-03-03T06:49:13;44.35;;;21.15;;
23406;SDS011;11876;53.438;18.942;2023-03-03T06:52:23;44.30;;;21.15;;
23406;SDS011;11876;53.438;18.942;2023-03-03T06:55:27;38.90;;;19.67;;
23406;SDS011;11876;53.438;18.942;2023-03-03T06:58:29;43.88;;;19.33;;
23406;SDS011;11876;53.438;18.942;2023-03-03T07:01:34;34.95;;;13.82;;
23406;SDS011;11876;53.438;18.942;2023-03-03T07:04:38;46.38;;;19.73;;
23406;SDS011;11876;53.438;18.942;2023-03-03T07:07:40;48.15;;;21.15;;
23406;SDS011;11876;53.438;18.942;2023-03-03T07:10:46;42.03;;;16.52;;
23406;SDS011;11876;53.438;18.942;2023-03-03T07:13:49;43.47;;;21.55;;
23406;SDS011;11876;53.438;18.942;2023-03-03T07:16:57;46.50;;;22.00;;
23406;SDS011;11876;53.438;18.942;2023-03-03T07:20:04;47.75;;;23.27;;
23406;SDS011;11876;53.438;18.942;2023-03-03T07:26:43;51.03;;;25.35;;
23406;SDS011;11876;53.438;18.942;2023-03-03T07:29:46;58.17;;;27.73;;
23406;SDS011;11876;53.438;18.942;2023-03-03T07:32:51;45.58;;;23.10;;
23406;SDS011;11876;53.438;18.942;2023-03-03T07:35:57;63.28;;;27.60;;
23406;SDS011;11876;53.438;18.942;2023-03-03T07:39:02;56.00;;;27.70;;
23406;SDS011;11876;53.438;18.942;2023-03-03T07:42:22;48.95;;;24.45;;
23406;SDS011;11876;53.438;18.942;2023-03-03T07:45:41;47.40;;;23.92;;
23406;SDS011;11876;53.438;18.942;2023-03-03T07:48:44;40.50;;;19.90;;
23406;SDS011;11876;53.438;18.942;2023-03-03T07:51:47;52.97;;;23.98;;
23406;SDS011;11876;53.438;18.942;2023-03-03T07:54:55;53.38;;;23.40;;
23406;SDS011;11876;53.438;18.942;2023-03-03T08:01:30;38.10;;;17.98;;
23406;SDS011;11876;53.438;18.942;2023-03-03T08:04:41;41.78;;;18.77;;
23406;SDS011;11876;53.438;18.942;2023-03-03T08:07:50;29.83;;;17.30;;
23406;SDS011;11876;53.438;18.942;2023-03-03T08:10:54;30.80;;;15.80;;
23406;SDS011;11876;53.438;18.942;2023-03-03T08:13:57;28.42;;;13.50;;
23406;SDS011;11876;53.438;18.942;2023-03-03T08:17:00;23.48;;;13.18;;
23406;SDS011;11876;53.438;18.942;2023-03-03T08:20:09;25.27;;;13.38;;
23406;SDS011;11876;53.438;18.942;2023-03-03T08:23:44;23.75;;;12.82;;
23406;SDS011;11876;53.438;18.942;2023-03-03T08:26:46;25.33;;;13.05;;
23406;SDS011;11876;53.438;18.942;2023-03-03T08:29:48;17.23;;;9.95;;
23406;SDS011;11876;53.438;18.942;2023-03-03T08:32:51;19.90;;;10.73;;
23406;SDS011;11876;53.438;18.942;2023-03-03T08:35:53;19.40;;;11.07;;
23406;SDS011;11876;53.438;18.942;2023-03-03T08:38:56;19.23;;;11.65;;
23406;SDS011;11876;53.438;18.942;2023-03-03T08:41:58;17.70;;;10.10;;
23406;SDS011;11876;53.438;18.942;2023-03-03T08:45:01;20.05;;;10.55;;
23406;SDS011;11876;53.438;18.942;2023-03-03T08:48:03;14.85;;;8.75;;
23406;SDS011;11876;53.438;18.942;2023-03-03T08:51:06;13.45;;;8.32;;
23406;SDS011;11876;53.438;18.942;2023-03-03T08:54:09;15.90;;;9.55;;
23406;SDS011;11876;53.438;18.942;2023-03-03T08:57:11;17.23;;;9.82;;
23406;SDS011;11876;53.438;18.942;2023-03-03T09:00:14;16.40;;;10.43;;
23406;SDS011;11876;53.438;18.942;2023-03-03T09:03:18;21.25;;;11.70;;
23406;SDS011;11876;53.438;18.942;2023-03-03T09:06:20;19.35;;;10.90;;
23406;SDS011;11876;53.438;18.942;2023-03-03T09:09:23;14.63;;;8.98;;
23406;SDS011;11876;53.438;18.942;2023-03-03T09:12:36;13.88;;;8.80;;
23406;SDS011;11876;53.438;18.942;2023-03-03T09:15:41;15.55;;;9.38;;
23406;SDS011;11876;53.438;18.942;2023-03-03T09:18:43;18.42;;;10.50;;
23406;SDS011;11876;53.438;18.942;2023-03-03T09:21:46;16.23;;;9.40;;
23406;SDS011;11876;53.438;18.942;2023-03-03T09:24:49;15.18;;;9.48;;
23406;SDS011;11876;53.438;18.942;2023-03-03T09:27:54;14.85;;;9.20;;
23406;SDS011;11876;53.438;18.942;2023-03-03T09:30:58;17.15;;;9.90;;
23406;SDS011;11876;53.438;18.942;2023-03-03T09:34:01;18.00;;;9.75;;
23406;SDS011;11876;53.438;18.942;2023-03-03T09:37:28;15.25;;;9.60;;
23406;SDS011;11876;53.438;18.942;2023-03-03T09:40:40;25.63;;;12.85;;
23406;SDS011;11876;53.438;18.942;2023-03-03T09:53:57;17.90;;;11.18;;
23406;SDS011;11876;53.438;18.942;2023-03-03T10:04:53;17.05;;;10.73;;
23406;SDS011;11876;53.438;18.942;2023-03-03T10:11:49;21.35;;;12.30;;
23406;SDS011;11876;53.438;18.942;2023-03-03T10:25:09;23.15;;;12.93;;
23406;SDS011;11876;53.438;18.942;2023-03-03T10:31:45;35.13;;;19.05;;
23406;SDS011;11876;53.438;18.942;2023-03-03T11:04:21;24.83;;;14.60;;
23406;SDS011;11876;53.438;18.942;2023-03-03T11:17:53;22.70;;;13.35;;
23406;SDS011;11876;53.438;18.942;2023-03-03T11:34:18;20.30;;;13.40;;
23406;SDS011;11876;53.438;18.942;2023-03-03T11:37:28;20.50;;;12.63;;
23406;SDS011;11876;53.438;18.942;2023-03-03T11:44:39;23.25;;;13.52;;
23406;SDS011;11876;53.438;18.942;2023-03-03T11:47:38;18.33;;;12.00;;
23406;SDS011;11876;53.438;18.942;2023-03-03T11:51:08;20.63;;;13.48;;
23406;SDS011;11876;53.438;18.942;2023-03-03T11:54:43;19.50;;;12.70;;
23406;SDS011;11876;53.438;18.942;2023-03-03T11:57:53;17.10;;;11.27;;
23406;SDS011;11876;53.438;18.942;2023-03-03T12:04:12;17.63;;;11.10;;
23406;SDS011;11876;53.438;18.942;2023-03-03T12:13:49;17.25;;;11.60;;
23406;SDS011;11876;53.438;18.942;2023-03-03T12:17:02;19.30;;;12.15;;
23406;SDS011;11876;53.438;18.942;2023-03-03T12:27:08;19.92;;;12.45;;
23406;SDS011;11876;53.438;18.942;2023-03-03T12:44:29;19.20;;;12.88;;
23406;SDS011;11876;53.438;18.942;2023-03-03T12:47:43;19.75;;;13.95;;
23406;SDS011;11876;53.438;18.942;2023-03-03T13:07:40;20.23;;;13.95;;
23406;SDS011;11876;53.438;18.942;2023-03-03T13:27:15;20.70;;;12.80;;
23406;SDS011;11876;53.438;18.942;2023-03-03T13:30:24;19.40;;;12.35;;
23406;SDS011;11876;53.438;18.942;2023-03-03T13:33:29;16.85;;;11.68;;
23406;SDS011;11876;53.438;18.942;2023-03-03T13:36:44;21.10;;;13.00;;
23406;SDS011;11876;53.438;18.942;2023-03-03T13:39:55;17.90;;;12.05;;
23406;SDS011;11876;53.438;18.942;2023-03-03T13:43:03;19.50;;;12.07;;
23406;SDS011;11876;53.438;18.942;2023-03-03T14:06:16;17.35;;;12.27;;
23406;SDS011;11876;53.438;18.942;2023-03-03T14:12:57;16.13;;;10.90;;
23406;SDS011;11876;53.438;18.942;2023-03-03T14:16:08;18.10;;;11.40;;
23406;SDS011;11876;53.438;18.942;2023-03-03T14:19:16;20.88;;;12.00;;
23406;SDS011;11876;53.438;18.942;2023-03-03T14:25:50;18.15;;;12.02;;
23406;SDS011;11876;53.438;18.942;2023-03-03T14:32:28;17.92;;;11.65;;
23406;SDS011;11876;53.438;18.942;2023-03-03T14:42:12;22.05;;;12.18;;
23406;SDS011;11876;53.438;18.942;2023-03-03T14:45:36;18.58;;;12.13;;
23406;SDS011;11876;53.438;18.942;2023-03-03T14:48:48;18.17;;;12.02;;
23406;SDS011;11876;53.438;18.942;2023-03-03T14:51:52;20.50;;;13.57;;
23406;SDS011;11876;53.438;18.942;2023-03-03T14:54:58;24.98;;;14.43;;
23406;SDS011;11876;53.438;18.942;2023-03-03T14:58:27;19.42;;;13.18;;
23406;SDS011;11876;53.438;18.942;2023-03-03T15:01:33;20.58;;;13.43;;
23406;SDS011;11876;53.438;18.942;2023-03-03T15:04:36;20.13;;;12.63;;
23406;SDS011;11876;53.438;18.942;2023-03-03T15:07:40;17.60;;;10.90;;
23406;SDS011;11876;53.438;18.942;2023-03-03T15:10:43;28.10;;;13.65;;
23406;SDS011;11876;53.438;18.942;2023-03-03T15:13:46;19.75;;;12.60;;
23406;SDS011;11876;53.438;18.942;2023-03-03T15:16:49;23.42;;;12.82;;
23406;SDS011;11876;53.438;18.942;2023-03-03T15:26:45;25.25;;;15.13;;
23406;SDS011;11876;53.438;18.942;2023-03-03T15:29:56;28.90;;;15.70;;
23406;SDS011;11876;53.438;18.942;2023-03-03T15:52:59;26.10;;;15.35;;
23406;SDS011;11876;53.438;18.942;2023-03-03T16:03:10;26.35;;;15.48;;
23406;SDS011;11876;53.438;18.942;2023-03-03T16:06:43;24.92;;;14.55;;
23406;SDS011;11876;53.438;18.942;2023-03-03T16:33:35;23.83;;;14.75;;
23406;SDS011;11876;53.438;18.942;2023-03-03T16:40:22;29.88;;;16.67;;
23406;SDS011;11876;53.438;18.942;2023-03-03T16:47:12;33.10;;;18.65;;
23406;SDS011;11876;53.438;18.942;2023-03-03T16:53:53;43.22;;;16.38;;
23406;SDS011;11876;53.438;18.942;2023-03-03T16:57:18;30.50;;;16.25;;
23406;SDS011;11876;53.438;18.942;2023-03-03T17:00:39;30.90;;;16.02;;
23406;SDS011;11876;53.438;18.942;2023-03-03T17:04:00;28.45;;;16.38;;
23406;SDS011;11876;53.438;18.942;2023-03-03T17:07:14;31.88;;;17.38;;
23406;SDS011;11876;53.438;18.942;2023-03-03T17:16:57;27.75;;;15.43;;
23406;SDS011;11876;53.438;18.942;2023-03-03T17:26:56;28.38;;;15.25;;
23406;SDS011;11876;53.438;18.942;2023-03-03T17:33:23;38.67;;;18.13;;
23406;SDS011;11876;53.438;18.942;2023-03-03T17:37:18;31.23;;;15.57;;
23406;SDS011;11876;53.438;18.942;2023-03-03T17:43:15;33.47;;;17.90;;
23406;SDS011;11876;53.438;18.942;2023-03-03T17:46:54;33.38;;;17.50;;
23406;SDS011;11876;53.438;18.942;2023-03-03T17:56:28;32.22;;;15.13;;
23406;SDS011;11876;53.438;18.942;2023-03-03T18:06:46;27.27;;;14.18;;
23406;SDS011;11876;53.438;18.942;2023-03-03T18:10:04;27.80;;;14.30;;
23406;SDS011;11876;53.438;18.942;2023-03-03T18:16:35;29.13;;;15.02;;
23406;SDS011;11876;53.438;18.942;2023-03-03T18:26:37;24.60;;;12.90;;
23406;SDS011;11876;53.438;18.942;2023-03-03T18:29:57;25.17;;;14.50;;
23406;SDS011;11876;53.438;18.942;2023-03-03T18:36:57;25.08;;;13.82;;
23406;SDS011;11876;53.438;18.942;2023-03-03T18:46:45;28.75;;;16.08;;
23406;SDS011;11876;53.438;18.942;2023-03-03T18:49:50;24.70;;;14.32;;
23406;SDS011;11876;53.438;18.942;2023-03-03T19:03:28;28.50;;;15.20;;
23406;SDS011;11876;53.438;18.942;2023-03-03T19:09:58;25.45;;;15.82;;
23406;SDS011;11876;53.438;18.942;2023-03-03T19:13:07;27.17;;;15.18;;
23406;SDS011;11876;53.438;18.942;2023-03-03T19:16:32;34.10;;;18.70;;
23406;SDS011;11876;53.438;18.942;2023-03-03T19:19:37;39.97;;;20.45;;
23406;SDS011;11876;53.438;18.942;2023-03-03T19:23:04;26.45;;;14.45;;
23406;SDS011;11876;53.438;18.942;2023-03-03T20:02:36;35.60;;;19.08;;
23406;SDS011;11876;53.438;18.942;2023-03-03T20:05:50;33.88;;;17.90;;
23406;SDS011;11876;53.438;18.942;2023-03-03T20:09:00;33.40;;;19.17;;
23406;SDS011;11876;53.438;18.942;2023-03-03T20:21:34;37.00;;;20.67;;
23406;SDS011;11876;53.438;18.942;2023-03-03T20:38:52;34.50;;;19.40;;
23406;SDS011;11876;53.438;18.942;2023-03-03T20:51:41;33.10;;;19.50;;
23406;SDS011;11876;53.438;18.942;2023-03-03T20:54:59;34.97;;;21.23;;
23406;SDS011;11876;53.438;18.942;2023-03-03T21:01:45;32.03;;;20.02;;
23406;SDS011;11876;53.438;18.942;2023-03-03T21:05:13;33.97;;;20.52;;
23406;SDS011;11876;53.438;18.942;2023-03-03T21:08:20;28.27;;;18.30;;
23406;SDS011;11876;53.438;18.942;2023-03-03T21:11:53;30.05;;;19.77;;
23406;SDS011;11876;53.438;18.942;2023-03-03T21:15:30;31.25;;;19.83;;
23406;SDS011;11876;53.438;18.942;2023-03-03T21:18:36;31.25;;;19.70;;
23406;SDS011;11876;53.438;18.942;2023-03-03T21:21:40;31.50;;;20.75;;
23406;SDS011;11876;53.438;18.942;2023-03-03T21:24:49;30.38;;;18.25;;
23406;SDS011;11876;53.438;18.942;2023-03-03T21:27:52;30.50;;;19.42;;
23406;SDS011;11876;53.438;18.942;2023-03-03T21:31:04;29.42;;;19.77;;
23406;SDS011;11876;53.438;18.942;2023-03-03T21:37:48;29.45;;;20.52;;
23406;SDS011;11876;53.438;18.942;2023-03-03T21:40:59;29.75;;;19.42;;
23406;SDS011;11876;53.438;18.942;2023-03-03T21:44:02;31.70;;;20.27;;
23406;SDS011;11876;53.438;18.942;2023-03-03T21:47:50;29.27;;;19.70;;
23406;SDS011;11876;53.438;18.942;2023-03-03T21:50:55;31.13;;;19.33;;
23406;SDS011;11876;53.438;18.942;2023-03-03T21:54:00;27.85;;;19.13;;
23406;SDS011;11876;53.438;18.942;2023-03-03T21:57:02;29.27;;;19.13;;
23406;SDS011;11876;53.438;18.942;2023-03-03T22:00:09;30.13;;;20.35;;
23406;SDS011;11876;53.438;18.942;2023-03-03T22:03:12;29.40;;;18.85;;
23406;SDS011;11876;53.438;18.942;2023-03-03T22:06:15;27.48;;;19.83;;
23406;SDS011;11876;53.438;18.942;2023-03-03T22:09:18;30.13;;;19.90;;
23406;SDS011;11876;53.438;18.942;2023-03-03T22:12:21;30.95;;;19.80;;
23406;SDS011;11876;53.438;18.942;2023-03-03T22:15:23;28.17;;;18.35;;
23406;SDS011;11876;53.438;18.942;2023-03-03T22:18:25;29.75;;;18.58;;
23406;SDS011;11876;53.438;18.942;2023-03-03T22:21:28;30.52;;;19.00;;
23406;SDS011;11876;53.438;18.942;2023-03-03T22:24:31;30.95;;;17.95;;
23406;SDS011;11876;53.438;18.942;2023-03-03T22:27:33;31.48;;;19.70;;
23406;SDS011;11876;53.438;18.942;2023-03-03T22:30:36;31.83;;;21.02;;
23406;SDS011;11876;53.438;18.942;2023-03-03T22:33:38;32.83;;;21.33;;
23406;SDS011;11876;53.438;18.942;2023-03-03T22:36:41;30.98;;;20.20;;
23406;SDS011;11876;53.438;18.942;2023-03-03T22:39:43;31.25;;;20.05;;
23406;SDS011;11876;53.438;18.942;2023-03-03T22:42:45;30.70;;;20.17;;
23406;SDS011;11876;53.438;18.942;2023-03-03T22:45:48;30.55;;;21.15;;
23406;SDS011;11876;53.438;18.942;2023-03-03T22:48:51;28.70;;;19.52;;
23406;SDS011;11876;53.438;18.942;2023-03-03T22:51:53;27.88;;;18.63;;
23406;SDS011;11876;53.438;18.942;2023-03-03T22:54:59;30.20;;;20.75;;
23406;SDS011;11876;53.438;18.942;2023-03-03T22:58:02;28.70;;;19.08;;
23406;SDS011;11876;53.438;18.942;2023-03-03T23:01:06;30.63;;;18.95;;
23406;SDS011;11876;53.438;18.942;2023-03-03T23:04:09;30.27;;;19.02;;
23406;SDS011;11876;53.438;18.942;2023-03-03T23:07:11;25.50;;;18.23;;
23406;SDS011;11876;53.438;18.942;2023-03-03T23:10:13;27.35;;;18.95;;
23406;SDS011;11876;53.438;18.942;2023-03-03T23:13:16;27.85;;;17.58;;
23406;SDS011;11876;53.438;18.942;2023-03-03T23:16:18;26.58;;;17.77;;
23406;SDS011;11876;53.438;18.942;2023-03-03T23:19:21;27.00;;;16.92;;
23406;SDS011;11876;53.438;18.942;2023-03-03T23:22:23;26.63;;;17.65;;
23406;SDS011;11876;53.438;18.942;2023-03-03T23:25:26;25.92;;;17.15;;
23406;SDS011;11876;53.438;18.942;2023-03-03T23:28:29;23.38;;;14.65;;
23406;SDS011;11876;53.438;18.942;2023-03-03T23:31:32;27.48;;;17.05;;
23406;SDS011;11876;53.438;18.942;2023-03-03T23:34:34;23.85;;;16.70;;
23406;SDS011;11876;53.438;18.942;2023-03-03T23:37:36;23.13;;;16.73;;
23406;SDS011;11876;53.438;18.942;2023-03-03T23:40:39;27.20;;;15.68;;
23406;SDS011;11876;53.438;18.942;2023-03-03T23:43:42;20.67;;;14.98;;
23406;SDS011;11876;53.438;18.942;2023-03-03T23:46:45;25.08;;;15.23;;
23406;SDS011;11876;53.438;18.942;2023-03-03T23:49:47;27.45;;;15.82;;
23406;SDS011;11876;53.438;18.942;2023-03-03T23:52:50;20.98;;;14.82;;
23406;SDS011;11876;53.438;18.942;2023-03-03T23:55:52;25.20;;;16.05;;
23406;SDS011;11876;53.438;18.942;2023-03-03T23:58:55;21.15;;;14.60;;
